Terminal Aerodrome Forecast
Issued by NWS

Home | Current Version | Previous Version | Text Only | Print | Product List | Glossary On
Versions: 1 2 3 4 5 6 7 8 9 10 11 12 13 14 15 16 17 18
000
FTUS44 KBMX 050500
TAFANB
TAF
KANB 050526Z 0506/0606 34007KT 4SM -RA OVC015
     FM050700 34006KT 4SM -RA OVC007
     FM052200 35009KT P6SM OVC015
     FM060300 01006KT P6SM OVC050=

USA.gov is the U.S. government's official web portal to all federal, state and local government web resources and services.